Time;durP1;ratioP1;P1;durP2;ratioP2;P2;SDS_P1;SDS_P2;PMS_P1;PMS_P2;Temp;Humidity;BMP_temperature;BMP_pressure;BME280_temperature;BME280_humidity;BME280_pressure;Samples;Min_cycle;Max_cycle;Signal;HPM_P1;HPM_P2
2022/01/06 00:00:24;;;;;;;0.80;0.43;;;;;;;8.01;69.56;100368.50;5027917;28;20104;-72
2022/01/06 00:02:51;;;;;;;1.10;0.57;;;;;;;8.01;69.53;100376.34;5023173;28;20108;-78
2022/01/06 00:05:19;;;;;;;1.38;0.90;;;;;;;8.01;69.36;100378.94;5026849;28;20046;-78
2022/01/06 00:07:45;;;;;;;1.73;1.05;;;;;;;8.00;69.30;100392.94;5025939;28;20042;-74
2022/01/06 00:10:14;;;;;;;2.10;0.70;;;;;;;8.01;69.11;100396.38;5029412;28;20045;-73
2022/01/06 00:13:06;;;;;;;2.13;1.30;;;;;;;7.89;69.39;100410.09;5028282;28;20045;-75
2022/01/06 00:23:29;;;;;;;2.92;2.53;;;;;;;7.42;70.83;100435.03;5017972;28;20049;-79
2022/01/06 00:25:58;;;;;;;5.28;3.30;;;;;;;7.45;70.89;100445.31;5024268;28;20115;-72
2022/01/06 00:28:26;;;;;;;5.15;3.35;;;;;;;7.43;70.92;100447.16;5018968;28;20448;-76
2022/01/06 00:30:53;;;;;;;3.80;2.92;;;;;;;7.41;70.70;100444.59;5024539;28;20096;-75
2022/01/06 00:33:20;;;;;;;4.15;3.28;;;;;;;7.41;70.82;100456.81;5029127;28;20056;-77
2022/01/06 00:35:47;;;;;;;4.72;3.17;;;;;;;7.40;70.76;100468.19;5029051;28;20050;-74
2022/01/06 00:38:13;;;;;;;4.05;3.33;;;;;;;7.41;70.56;100473.31;5029399;28;20037;-72
2022/01/06 00:40:40;;;;;;;4.53;3.30;;;;;;;7.44;70.56;100477.53;5029201;28;20049;-78
2022/01/06 00:43:08;;;;;;;4.38;3.15;;;;;;;7.42;70.47;100471.56;5025202;28;20107;-78
2022/01/06 00:45:37;;;;;;;4.65;3.13;;;;;;;7.40;70.40;100479.44;5029029;28;20459;-78
2022/01/06 00:48:07;;;;;;;5.72;3.50;;;;;;;7.37;70.46;100479.63;5028872;28;20049;-78
2022/01/06 00:50:34;;;;;;;7.35;3.20;;;;;;;7.26;70.54;100472.31;5017810;28;20120;-77
2022/01/06 00:53:04;;;;;;;3.97;3.13;;;;;;;7.14;70.59;100467.66;5028761;28;20507;-79
2022/01/06 00:55:32;;;;;;;4.35;2.80;;;;;;;7.06;70.76;100468.03;5017358;28;20045;-78
2022/01/06 00:58:00;;;;;;;4.32;2.72;;;;;;;7.13;70.32;100479.84;5028755;28;20049;-80
2022/01/06 01:00:37;;;;;;;4.03;2.72;;;;;;;7.05;70.45;100478.50;5028694;28;20076;-73
2022/01/06 01:03:12;;;;;;;5.47;2.60;;;;;;;7.04;70.35;100495.94;5028868;28;20061;-79
2022/01/06 01:05:40;;;;;;;4.30;2.73;;;;;;;6.97;70.44;100497.97;5028467;28;20041;-72
2022/01/06 01:08:07;;;;;;;3.08;2.38;;;;;;;6.91;70.47;100502.59;5028688;28;20284;-76
2022/01/06 01:10:35;;;;;;;4.13;2.90;;;;;;;6.92;70.33;100505.16;5028538;28;20050;-72
2022/01/06 01:13:02;;;;;;;3.00;2.55;;;;;;;6.91;70.21;100508.69;5027483;28;20088;-72
2022/01/06 01:15:31;;;;;;;4.03;2.80;;;;;;;6.89;70.34;100517.50;5028624;28;20116;-72
2022/01/06 01:18:05;;;;;;;3.00;2.55;;;;;;;6.87;70.23;100522.78;5019650;28;20041;-78
2022/01/06 01:20:33;;;;;;;3.38;2.38;;;;;;;6.88;70.09;100534.06;5027407;28;20045;-78
2022/01/06 01:23:00;;;;;;;3.45;2.22;;;;;;;6.85;70.33;100537.66;5031767;28;20049;-71
2022/01/06 01:25:26;;;;;;;2.47;2.28;;;;;;;6.88;70.06;100550.53;5034183;28;20050;-78
2022/01/06 01:27:55;;;;;;;2.80;2.00;;;;;;;6.88;69.93;100547.94;5031928;28;20045;-71
2022/01/06 01:30:29;;;;;;;2.08;1.70;;;;;;;6.89;69.74;100546.19;5032293;28;20048;-71
2022/01/06 01:32:58;;;;;;;1.80;1.45;;;;;;;6.86;69.59;100544.56;5031736;28;20082;-76
2022/01/06 01:35:31;;;;;;;3.35;1.92;;;;;;;6.86;69.64;100555.84;5030559;28;20041;-72
2022/01/06 01:37:59;;;;;;;3.08;1.85;;;;;;;6.89;69.54;100565.28;5031760;28;20092;-71
2022/01/06 01:40:26;;;;;;;1.67;1.48;;;;;;;6.93;69.41;100571.22;5027813;28;20058;-71
2022/01/06 01:42:52;;;;;;;2.13;1.60;;;;;;;6.94;69.49;100576.34;5029509;28;20049;-71
2022/01/06 01:45:24;;;;;;;2.15;1.67;;;;;;;6.94;69.23;100584.19;5032427;28;20045;-77
2022/01/06 01:47:51;;;;;;;2.33;1.42;;;;;;;6.96;68.99;100581.53;5034448;28;20049;-77
2022/01/06 01:50:18;;;;;;;1.85;1.50;;;;;;;6.93;69.24;100589.47;5034635;28;20045;-77
2022/01/06 01:52:50;;;;;;;1.63;1.30;;;;;;;6.93;69.09;100592.09;5034631;28;20052;-77
2022/01/06 01:55:27;;;;;;;2.47;1.45;;;;;;;6.89;69.22;100596.59;5034563;28;20045;-78
2022/01/06 01:57:55;;;;;;;3.65;1.30;;;;;;;6.82;69.20;100611.66;5032708;28;20175;-76
2022/01/06 02:00:25;;;;;;;1.80;1.45;;;;;;;6.81;69.44;100611.75;5034647;28;20156;-77
2022/01/06 02:02:52;;;;;;;1.20;1.10;;;;;;;6.85;69.12;100605.47;5034983;28;20045;-77
2022/01/06 02:05:25;;;;;;;1.42;1.10;;;;;;;6.79;69.44;100605.72;5034226;28;20045;-73
2022/01/06 02:07:53;;;;;;;1.70;1.25;;;;;;;6.81;69.39;100609.13;5034034;28;20124;-78
2022/01/06 02:10:20;;;;;;;1.67;1.10;;;;;;;6.74;69.59;100613.75;5033516;28;20050;-77
2022/01/06 02:12:50;;;;;;;1.45;1.35;;;;;;;6.73;69.40;100622.50;5034527;28;20042;-77
2022/01/06 02:15:16;;;;;;;1.75;1.55;;;;;;;6.71;69.55;100619.09;5034446;28;20103;-73
2022/01/06 02:17:44;;;;;;;1.50;1.20;;;;;;;6.69;69.51;100620.91;5028534;28;20037;-72
2022/01/06 02:20:13;;;;;;;1.20;1.10;;;;;;;6.68;69.62;100625.28;5034525;28;20381;-77
2022/01/06 02:22:40;;;;;;;1.27;0.90;;;;;;;6.66;69.63;100627.09;5034303;28;20535;-77
2022/01/06 02:25:10;;;;;;;1.15;0.95;;;;;;;6.62;69.75;100627.31;5034342;28;20087;-72
2022/01/06 02:27:37;;;;;;;0.90;0.90;;;;;;;6.62;69.56;100633.38;5033656;28;20111;-75
2022/01/06 02:30:05;;;;;;;1.23;0.90;;;;;;;6.67;69.65;100636.63;5034298;28;20416;-77
2022/01/06 02:32:31;;;;;;;0.70;0.70;;;;;;;6.61;69.67;100639.50;5029496;28;20454;-74
2022/01/06 02:35:03;;;;;;;1.00;0.80;;;;;;;6.61;69.82;100641.25;5033866;28;20389;-76
2022/01/06 02:37:30;;;;;;;1.17;0.70;;;;;;;6.60;69.55;100639.56;5035124;28;20046;-77
2022/01/06 02:39:57;;;;;;;0.50;0.50;;;;;;;6.58;69.70;100630.94;5034678;28;20058;-71
2022/01/06 02:42:24;;;;;;;0.90;0.50;;;;;;;6.53;69.63;100645.03;5034287;28;20107;-77
2022/01/06 02:44:50;;;;;;;0.60;0.60;;;;;;;6.48;69.63;100652.19;5033947;28;20045;-76
2022/01/06 02:47:17;;;;;;;0.50;0.50;;;;;;;6.48;69.76;100662.63;5034116;28;20045;-78
2022/01/06 02:49:44;;;;;;;0.73;0.63;;;;;;;6.47;69.63;100666.13;5031095;28;20393;-70
2022/01/06 02:52:10;;;;;;;0.65;0.60;;;;;;;6.41;69.83;100686.38;5032133;28;20104;-77
2022/01/06 02:54:37;;;;;;;0.63;0.50;;;;;;;6.44;69.85;100688.88;5034063;28;20060;-76
2022/01/06 02:57:04;;;;;;;0.68;0.50;;;;;;;6.51;69.45;100695.53;5033737;28;20530;-77
2022/01/06 02:59:30;;;;;;;0.95;0.82;;;;;;;6.46;69.61;100697.47;5033811;28;20045;-75
2022/01/06 03:01:57;;;;;;;0.90;0.70;;;;;;;6.37;69.75;100701.28;5033629;28;20126;-76
2022/01/06 03:04:24;;;;;;;1.83;0.88;;;;;;;6.31;69.96;100704.13;5033886;28;20045;-76
2022/01/06 03:06:52;;;;;;;0.90;0.70;;;;;;;6.30;69.99;100711.13;5028526;28;20053;-76
2022/01/06 03:09:36;;;;;;;1.05;0.73;;;;;;;6.34;69.92;100720.50;5033351;28;20045;-77
2022/01/06 03:12:06;;;;;;;1.20;0.70;;;;;;;6.36;69.58;100712.63;5032009;28;20057;-76
2022/01/06 03:14:33;;;;;;;0.70;0.70;;;;;;;6.35;69.66;100718.78;5027074;28;20045;-77
2022/01/06 03:16:59;;;;;;;0.98;0.70;;;;;;;6.34;69.66;100717.91;5025370;28;20565;-75
2022/01/06 03:19:26;;;;;;;0.80;0.75;;;;;;;6.42;69.40;100728.03;5033087;28;20057;-71
2022/01/06 03:21:53;;;;;;;0.70;0.70;;;;;;;6.38;69.42;100740.31;5032830;28;20100;-77
2022/01/06 03:24:20;;;;;;;0.60;0.60;;;;;;;6.37;69.37;100746.47;5032892;28;20041;-75
2022/01/06 03:26:46;;;;;;;0.70;0.60;;;;;;;6.34;69.54;100740.53;5033033;28;20053;-77
2022/01/06 03:29:13;;;;;;;0.80;0.60;;;;;;;6.36;69.45;100749.97;5027998;28;20046;-75
2022/01/06 03:31:40;;;;;;;0.60;0.50;;;;;;;6.33;69.52;100749.25;5032765;28;20107;-76
2022/01/06 03:34:08;;;;;;;0.77;0.60;;;;;;;6.36;69.46;100752.59;5032487;28;20057;-76
2022/01/06 03:36:36;;;;;;;0.70;0.60;;;;;;;6.32;69.48;100757.97;5032498;28;20091;-74
2022/01/06 03:39:04;;;;;;;0.60;0.55;;;;;;;6.34;69.26;100763.97;5032117;28;20459;-77
2022/01/06 03:41:30;;;;;;;0.60;0.50;;;;;;;6.28;69.54;100762.44;5031945;28;20095;-74
2022/01/06 03:43:57;;;;;;;0.73;0.60;;;;;;;6.33;69.38;100764.88;5032459;28;20503;-74
2022/01/06 03:46:24;;;;;;;0.60;0.60;;;;;;;6.34;69.48;100770.03;5032440;28;20042;-76
2022/01/06 03:48:50;;;;;;;0.50;0.50;;;;;;;6.38;69.45;100768.16;5032558;28;20092;-76
2022/01/06 03:51:20;;;;;;;1.02;0.55;;;;;;;6.37;69.57;100769.94;5032445;28;20447;-77
2022/01/06 03:53:47;;;;;;;0.93;0.68;;;;;;;6.42;69.42;100771.50;5032367;28;20119;-76
2022/01/06 03:56:14;;;;;;;0.50;0.50;;;;;;;6.45;69.43;100787.88;5032493;28;20103;-75
2022/01/06 03:58:40;;;;;;;0.75;0.52;;;;;;;6.45;69.43;100787.00;5032185;28;20500;-76
2022/01/06 04:01:07;;;;;;;0.52;0.52;;;;;;;6.32;69.89;100782.28;5029334;28;20104;-70
2022/01/06 04:03:34;;;;;;;0.50;0.40;;;;;;;6.38;69.65;100789.00;5028203;28;20082;-73
2022/01/06 04:06:01;;;;;;;1.58;0.47;;;;;;;6.35;69.38;100794.34;5030277;28;20049;-77
2022/01/06 04:08:27;;;;;;;0.88;0.32;;;;;;;6.40;69.33;100789.81;5029555;28;20045;-72
2022/01/06 04:10:54;;;;;;;0.35;0.30;;;;;;;6.42;69.17;100793.19;5029231;28;20072;-70
2022/01/06 04:13:21;;;;;;;0.63;0.47;;;;;;;6.38;69.25;100800.28;5029140;28;20050;-73
2022/01/06 04:15:48;;;;;;;0.28;0.25;;;;;;;6.42;69.15;100798.41;5028840;28;20053;-71
2022/01/06 04:18:14;;;;;;;0.80;0.40;;;;;;;6.41;69.28;100804.50;5029158;28;20077;-70
2022/01/06 04:20:41;;;;;;;0.40;0.38;;;;;;;6.40;69.12;100802.84;5028848;28;20080;-71
2022/01/06 04:23:07;;;;;;;0.50;0.43;;;;;;;6.40;69.44;100810.66;5025961;28;20119;-70
2022/01/06 04:25:34;;;;;;;0.80;0.50;;;;;;;6.41;69.30;100812.34;5028996;28;20381;-75
2022/01/06 04:28:01;;;;;;;0.45;0.43;;;;;;;6.43;69.57;100812.31;5028848;28;20045;-76
2022/01/06 04:30:27;;;;;;;0.65;0.50;;;;;;;6.40;69.33;100815.88;5028975;28;20049;-76
2022/01/06 04:32:54;;;;;;;0.50;0.40;;;;;;;6.42;69.43;100826.25;5028802;28;20046;-76
2022/01/06 04:35:21;;;;;;;0.45;0.45;;;;;;;6.44;69.53;100825.28;5029016;28;20053;-71
2022/01/06 04:37:47;;;;;;;1.35;1.20;;;;;;;6.40;69.59;100830.66;5028421;28;20045;-76
2022/01/06 04:40:14;;;;;;;0.63;0.40;;;;;;;6.39;69.77;100835.03;5023896;28;20053;-70
2022/01/06 04:42:40;;;;;;;0.70;0.52;;;;;;;6.39;69.78;100840.25;5028928;28;20053;-74
2022/01/06 04:45:08;;;;;;;0.47;0.47;;;;;;;6.36;69.92;100838.59;5028657;28;20045;-73
2022/01/06 04:47:34;;;;;;;1.05;0.50;;;;;;;6.35;69.84;100843.88;5028772;28;20454;-76
2022/01/06 04:50:01;;;;;;;0.75;0.55;;;;;;;6.30;70.10;100844.03;5028445;28;20446;-74
2022/01/06 04:52:27;;;;;;;0.35;0.35;;;;;;;6.35;69.95;100846.47;5034115;28;20049;-73
2022/01/06 04:54:54;;;;;;;0.40;0.40;;;;;;;6.36;69.97;100859.44;5035124;28;20053;-70
2022/01/06 04:57:21;;;;;;;0.52;0.30;;;;;;;6.33;69.77;100858.72;5032702;28;20511;-76
2022/01/06 04:59:48;;;;;;;0.65;0.50;;;;;;;6.35;69.96;100868.16;5034825;28;20091;-76
2022/01/06 05:02:14;;;;;;;0.47;0.43;;;;;;;6.33;70.09;100864.75;5035129;28;20046;-70
2022/01/06 05:04:41;;;;;;;0.45;0.40;;;;;;;6.34;69.91;100861.25;5035123;28;20084;-70
2022/01/06 05:07:08;;;;;;;0.30;0.30;;;;;;;6.33;70.15;100869.13;5035004;28;20514;-70
2022/01/06 05:09:34;;;;;;;0.40;0.30;;;;;;;6.29;70.21;100871.00;5035037;28;20054;-70
2022/01/06 05:12:01;;;;;;;0.70;0.50;;;;;;;6.28;70.22;100874.50;5035057;28;20049;-72
2022/01/06 05:14:28;;;;;;;1.00;0.50;;;;;;;6.30;70.21;100887.50;5029994;28;20057;-74
2022/01/06 05:16:57;;;;;;;0.77;0.30;;;;;;;6.29;70.17;100884.03;5035215;28;20091;-71
2022/01/06 05:19:24;;;;;;;0.40;0.40;;;;;;;6.32;70.26;100889.16;5035093;28;20096;-69
2022/01/06 05:21:52;;;;;;;1.00;0.55;;;;;;;6.34;70.29;100889.91;5035187;28;20103;-76
2022/01/06 05:24:20;;;;;;;0.70;0.60;;;;;;;6.34;70.22;100896.91;5035014;28;20053;-71
2022/01/06 05:26:47;;;;;;;0.60;0.60;;;;;;;6.34;70.50;100899.50;5034686;28;20041;-70
2022/01/06 05:29:14;;;;;;;1.15;0.90;;;;;;;6.33;70.69;100898.63;5034833;28;20990;-71
2022/01/06 05:31:41;;;;;;;1.48;1.05;;;;;;;6.28;70.60;100905.78;5028058;28;20046;-75
2022/01/06 05:34:08;;;;;;;1.08;0.93;;;;;;;6.30;70.96;100911.78;5028041;28;20041;-73
2022/01/06 05:36:37;;;;;;;0.70;0.70;;;;;;;6.29;71.29;100902.28;5033792;28;20053;-70
2022/01/06 05:39:04;;;;;;;0.80;0.70;;;;;;;6.34;71.13;100909.94;5026670;28;20053;-71
2022/01/06 05:41:31;;;;;;;1.20;1.10;;;;;;;6.30;71.37;100916.16;5034393;28;20046;-71
2022/01/06 05:43:59;;;;;;;1.30;0.98;;;;;;;6.27;71.54;100922.34;5034353;28;20042;-75
2022/01/06 05:46:26;;;;;;;2.47;0.80;;;;;;;6.29;71.62;100919.69;5034324;28;20085;-70
2022/01/06 05:48:52;;;;;;;0.70;0.70;;;;;;;6.24;71.65;100934.63;5032848;28;20045;-75
2022/01/06 05:51:19;;;;;;;0.80;0.80;;;;;;;6.19;71.94;100929.56;5029251;28;20072;-71
2022/01/06 05:53:46;;;;;;;0.82;0.82;;;;;;;6.18;71.76;100928.72;5034179;28;20115;-70
2022/01/06 05:56:12;;;;;;;1.20;1.10;;;;;;;6.20;72.27;100929.50;5034406;28;20049;-76
2022/01/06 05:58:40;;;;;;;1.10;1.00;;;;;;;6.23;72.00;100923.34;5034087;28;20045;-73
2022/01/06 06:01:07;;;;;;;1.10;1.00;;;;;;;6.21;72.00;100931.22;5034202;28;20095;-71
2022/01/06 06:03:40;;;;;;;1.20;1.10;;;;;;;6.08;72.23;100932.53;5030983;28;20064;-71
2022/01/06 06:06:15;;;;;;;2.33;1.40;;;;;;;6.10;72.55;100929.91;5036425;28;20049;-70
2022/01/06 06:08:47;;;;;;;1.40;1.30;;;;;;;6.14;72.37;100936.69;5030491;28;20508;-70
2022/01/06 06:11:13;;;;;;;1.40;1.30;;;;;;;6.06;72.61;100936.97;5031247;28;20403;-75
2022/01/06 06:13:40;;;;;;;1.60;1.50;;;;;;;6.15;72.44;100943.63;5031360;28;20058;-76
2022/01/06 06:16:07;;;;;;;1.75;1.65;;;;;;;6.05;72.59;100936.09;5030728;28;20049;-70
2022/01/06 06:18:33;;;;;;;2.15;1.95;;;;;;;6.08;72.70;100936.91;5030805;28;20088;-75
2022/01/06 06:21:00;;;;;;;1.90;1.80;;;;;;;6.04;72.49;100941.38;5030637;28;20065;-70
2022/01/06 06:23:27;;;;;;;2.28;1.70;;;;;;;5.94;72.84;100943.44;5030812;28;20045;-72
2022/01/06 06:25:53;;;;;;;1.80;1.70;;;;;;;6.04;73.09;100941.38;5027160;28;20515;-72
2022/01/06 06:28:20;;;;;;;1.70;1.60;;;;;;;6.02;72.90;100949.25;5030839;28;20107;-76
2022/01/06 06:30:46;;;;;;;2.10;1.90;;;;;;;6.10;72.62;100950.75;5030603;28;20053;-76
2022/01/06 06:33:13;;;;;;;2.00;1.80;;;;;;;6.13;72.71;100961.03;5030788;28;20134;-76
2022/01/06 06:35:40;;;;;;;2.42;2.20;;;;;;;6.08;72.34;100955.97;5030394;28;20049;-71
2022/01/06 06:38:07;;;;;;;2.67;2.45;;;;;;;6.10;72.91;100959.41;5030627;28;20507;-71
2022/01/06 06:40:33;;;;;;;2.92;2.67;;;;;;;6.11;72.63;100963.72;5030800;28;20400;-70
2022/01/06 06:43:00;;;;;;;4.82;3.55;;;;;;;6.10;72.92;100966.38;5030321;28;20045;-71
2022/01/06 06:45:26;;;;;;;3.45;2.60;;;;;;;6.10;72.65;100963.75;5030925;28;20108;-72
2022/01/06 06:47:53;;;;;;;2.75;2.55;;;;;;;6.09;72.49;100964.66;5028374;28;20041;-71
2022/01/06 06:50:21;;;;;;;2.70;2.47;;;;;;;6.04;72.76;100964.81;5027532;28;20121;-70
2022/01/06 06:52:48;;;;;;;2.33;2.13;;;;;;;5.86;73.51;100974.91;5030822;28;20144;-71
2022/01/06 06:55:15;;;;;;;2.90;2.58;;;;;;;5.89;72.93;100967.00;5018863;28;20049;-70
2022/01/06 06:57:41;;;;;;;3.17;2.70;;;;;;;5.89;72.85;100973.94;5030429;28;20054;-73
2022/01/06 07:00:10;;;;;;;2.90;2.60;;;;;;;5.84;73.26;100976.72;5030209;28;20046;-76
2022/01/06 07:02:36;;;;;;;4.15;2.60;;;;;;;5.73;73.17;100977.06;5030176;28;20416;-72
2022/01/06 07:05:04;;;;;;;3.85;2.60;;;;;;;5.68;73.21;100983.34;5029651;28;20057;-70
2022/01/06 07:07:31;;;;;;;3.20;2.90;;;;;;;5.66;73.38;100986.00;5021206;28;20049;-70
2022/01/06 07:09:57;;;;;;;2.70;2.40;;;;;;;5.63;73.50;100993.06;5030102;28;20458;-74
2022/01/06 07:12:24;;;;;;;2.50;2.30;;;;;;;5.73;73.27;100987.50;5030082;28;20041;-75
2022/01/06 07:14:51;;;;;;;2.33;2.00;;;;;;;5.80;72.87;100988.16;5029542;28;20099;-70
2022/01/06 07:17:18;;;;;;;2.35;2.15;;;;;;;5.76;73.06;100999.56;5029929;28;20434;-75
2022/01/06 07:19:45;;;;;;;2.17;1.98;;;;;;;5.68;72.92;100989.38;5029823;28;20409;-73
2022/01/06 07:22:11;;;;;;;2.92;1.70;;;;;;;5.69;73.27;100998.06;5030177;28;20045;-70
2022/01/06 07:24:39;;;;;;;1.98;1.77;;;;;;;5.71;73.02;101010.13;5029987;28;20561;-70
2022/01/06 07:27:06;;;;;;;2.50;2.13;;;;;;;5.67;72.68;101008.50;5029679;28;20050;-76
2022/01/06 07:29:33;;;;;;;2.50;2.30;;;;;;;5.66;73.12;101009.44;5029628;28;20479;-74
2022/01/06 07:32:00;;;;;;;2.10;1.90;;;;;;;5.73;72.60;101010.91;5029608;28;20052;-76
2022/01/06 07:34:26;;;;;;;2.22;2.03;;;;;;;5.80;72.58;101008.13;5029190;28;20053;-74
2022/01/06 07:36:54;;;;;;;3.83;2.00;;;;;;;5.71;72.64;101017.94;5029350;28;20045;-71
2022/01/06 07:39:20;;;;;;;2.10;1.90;;;;;;;5.69;72.55;101022.34;5029658;28;20057;-70
2022/01/06 07:41:47;;;;;;;2.10;1.90;;;;;;;5.72;72.79;101030.03;5030893;28;20037;-69
2022/01/06 07:44:14;;;;;;;2.30;2.10;;;;;;;5.66;72.89;101034.59;5023019;28;20052;-75
2022/01/06 07:46:42;;;;;;;1.95;1.77;;;;;;;5.70;72.84;101037.06;5025402;28;20069;-72
2022/01/06 07:49:09;;;;;;;2.22;2.03;;;;;;;5.76;72.89;101049.03;5026565;28;20045;-71
2022/01/06 07:51:35;;;;;;;2.47;1.90;;;;;;;5.71;72.66;101046.59;5029236;28;20409;-76
2022/01/06 07:54:02;;;;;;;2.33;2.05;;;;;;;5.75;72.80;101051.69;5029694;28;20042;-70
2022/01/06 07:56:29;;;;;;;2.85;2.00;;;;;;;5.75;72.70;101056.91;5029756;28;20446;-76
2022/01/06 07:58:56;;;;;;;2.47;2.10;;;;;;;5.78;72.60;101051.59;5029550;28;20103;-77
2022/01/06 08:01:23;;;;;;;2.50;2.30;;;;;;;5.89;72.20;101055.56;5029352;28;20045;-71
2022/01/06 08:03:51;;;;;;;2.40;2.20;;;;;;;6.05;71.98;101055.94;5027906;28;20049;-76
2022/01/06 08:06:18;;;;;;;2.58;2.38;;;;;;;6.07;72.06;101052.44;5029416;28;20095;-71
2022/01/06 08:08:45;;;;;;;2.40;2.03;;;;;;;6.17;71.77;101064.25;5029040;28;20120;-77
2022/01/06 08:11:12;;;;;;;2.67;2.47;;;;;;;6.11;71.95;101057.50;5029144;28;20041;-76
2022/01/06 08:13:40;;;;;;;2.70;2.50;;;;;;;6.14;71.97;101067.81;5029180;28;20049;-76
2022/01/06 08:16:06;;;;;;;2.70;2.50;;;;;;;6.19;72.09;101062.47;5028718;28;20057;-70
2022/01/06 08:18:33;;;;;;;2.80;2.60;;;;;;;6.21;71.91;101058.06;5028446;28;20045;-77
2022/01/06 08:21:00;;;;;;;2.90;2.70;;;;;;;6.33;71.79;101062.00;5024409;28;20111;-76
2022/01/06 08:23:27;;;;;;;2.63;2.42;;;;;;;6.56;71.41;101063.81;5028454;28;20127;-72
2022/01/06 08:25:55;;;;;;;2.58;2.38;;;;;;;6.87;70.79;101065.34;5028160;28;20251;-77
2022/01/06 08:28:22;;;;;;;2.65;2.45;;;;;;;7.21;69.86;101056.25;5029063;28;20107;-76
2022/01/06 08:30:49;;;;;;;2.60;2.40;;;;;;;7.56;69.11;101055.84;5027303;28;20065;-71
2022/01/06 08:33:15;;;;;;;2.58;2.38;;;;;;;7.63;68.66;101062.50;5028534;28;20044;-75
2022/01/06 08:35:42;;;;;;;2.90;2.58;;;;;;;7.23;69.86;101061.44;5025706;28;20084;-77
2022/01/06 08:38:14;;;;;;;5.20;4.00;;;;;;;7.00;70.30;101070.97;5025854;28;20107;-74
2022/01/06 08:40:40;;;;;;;4.22;3.83;;;;;;;6.92;70.89;101066.03;5028581;28;20081;-70
2022/01/06 08:43:07;;;;;;;3.75;2.42;;;;;;;6.75;71.07;101068.38;5028239;28;20092;-69
2022/01/06 08:45:34;;;;;;;2.70;2.50;;;;;;;6.54;71.46;101081.28;5028877;28;20172;-69
2022/01/06 08:48:01;;;;;;;2.53;2.33;;;;;;;6.43;71.55;101081.63;5028542;28;20053;-69
2022/01/06 08:50:28;;;;;;;2.40;2.20;;;;;;;6.65;71.44;101094.81;5028555;28;20072;-69
2022/01/06 08:52:55;;;;;;;2.88;2.67;;;;;;;6.73;70.87;101096.28;5023366;28;20100;-69
2022/01/06 08:55:25;;;;;;;3.30;3.00;;;;;;;6.50;71.20;101101.38;5026986;28;20091;-69
2022/01/06 08:57:53;;;;;;;2.63;2.42;;;;;;;6.47;71.50;101109.28;5024103;28;20515;-68
2022/01/06 09:00:20;;;;;;;2.70;2.50;;;;;;;6.44;71.77;101100.75;5028185;28;20095;-69
2022/01/06 09:02:46;;;;;;;2.58;2.38;;;;;;;6.48;71.72;101104.94;5027878;28;20042;-69
2022/01/06 09:05:14;;;;;;;3.38;3.08;;;;;;;6.45;71.72;101113.72;5028104;28;20053;-68
2022/01/06 09:07:41;;;;;;;9.50;7.22;;;;;;;6.59;71.23;101113.25;5028350;28;20050;-68
2022/01/06 09:10:08;;;;;;;69.57;37.38;;;;;;;6.49;71.42;101109.25;5028083;28;20050;-68
2022/01/06 09:12:35;;;;;;;43.28;22.58;;;;;;;6.51;71.64;101116.13;5027962;28;20041;-69
2022/01/06 09:15:02;;;;;;;25.77;19.95;;;;;;;6.61;71.42;101113.19;5027366;28;20526;-70
2022/01/06 09:17:29;;;;;;;14.90;13.45;;;;;;;6.69;70.96;101108.56;5028091;28;20388;-70
2022/01/06 09:19:56;;;;;;;10.50;9.52;;;;;;;6.90;70.94;101113.97;5027698;28;20041;-70
2022/01/06 09:22:22;;;;;;;8.32;7.63;;;;;;;7.40;69.59;101107.78;5028092;28;20092;-71
2022/01/06 09:24:49;;;;;;;11.82;10.73;;;;;;;7.38;69.12;101118.31;5027919;28;20087;-71
2022/01/06 09:27:15;;;;;;;14.18;12.68;;;;;;;7.64;68.64;101116.44;5028305;28;20045;-70
2022/01/06 09:29:42;;;;;;;16.65;15.05;;;;;;;7.99;67.72;101125.53;5027588;28;20490;-69
2022/01/06 09:32:09;;;;;;;9.65;8.75;;;;;;;8.29;66.86;101125.22;5027815;28;20119;-69
2022/01/06 09:34:35;;;;;;;21.25;17.27;;;;;;;8.21;67.43;101131.66;5027614;28;20041;-70
2022/01/06 09:37:03;;;;;;;20.02;12.98;;;;;;;8.83;65.56;101135.22;5027400;28;20885;-70
2022/01/06 09:39:30;;;;;;;12.70;8.88;;;;;;;9.33;64.45;101128.66;5030061;28;20056;-70
2022/01/06 09:41:57;;;;;;;13.88;9.32;;;;;;;9.55;63.61;101117.19;5031205;28;20050;-70
2022/01/06 09:44:25;;;;;;;12.27;8.23;;;;;;;9.92;63.22;101118.09;5031796;28;20045;-70
2022/01/06 09:47:00;;;;;;;25.60;18.95;;;;;;;10.15;62.40;101119.59;5031664;28;20046;-70
2022/01/06 09:49:27;;;;;;;12.98;8.93;;;;;;;10.47;61.61;101126.84;5031611;28;20053;-70
2022/01/06 09:51:54;;;;;;;20.92;12.77;;;;;;;10.47;61.38;101122.44;5029420;28;20041;-70
2022/01/06 09:54:20;;;;;;;12.70;8.93;;;;;;;10.51;61.39;101123.97;5031758;28;20045;-70
2022/01/06 09:56:47;;;;;;;16.05;11.00;;;;;;;10.67;60.86;101117.97;5031091;28;20111;-70
2022/01/06 09:59:14;;;;;;;12.07;9.98;;;;;;;10.86;60.48;101123.97;5031092;28;20143;-70
2022/01/06 10:01:41;;;;;;;11.75;7.68;;;;;;;10.82;60.42;101122.44;5028834;28;20042;-71
2022/01/06 10:04:25;;;;;;;19.85;13.55;;;;;;;10.98;59.61;101116.38;5031146;28;20053;-71
2022/01/06 10:07:00;;;;;;;22.60;11.52;;;;;;;11.01;59.70;101119.69;5030978;28;20088;-71
2022/01/06 10:09:27;;;;;;;24.15;14.48;;;;;;;10.86;59.55;101115.25;5031050;28;20049;-71
2022/01/06 10:11:56;;;;;;;21.25;13.05;;;;;;;11.01;59.09;101122.31;5030499;28;20041;-71
2022/01/06 10:14:32;;;;;;;11.73;9.75;;;;;;;11.02;59.30;101125.78;5031116;28;20488;-72
2022/01/06 10:16:59;;;;;;;13.20;10.50;;;;;;;11.15;58.97;101124.22;5031163;28;20152;-71
2022/01/06 10:19:26;;;;;;;10.90;9.32;;;;;;;11.25;58.64;101119.34;5030728;28;20470;-71
2022/01/06 10:21:57;;;;;;;11.52;8.95;;;;;;;11.53;57.52;101121.31;5030555;28;20048;-69
2022/01/06 10:24:28;;;;;;;14.98;13.32;;;;;;;11.35;57.72;101114.41;5030716;28;20099;-73
2022/01/06 10:27:04;;;;;;;22.30;14.27;;;;;;;11.64;57.54;101118.06;5029910;28;20045;-71
2022/01/06 10:29:32;;;;;;;;;;;;;;;11.89;56.64;101124.63;5031228;28;20045;-74
2022/01/06 10:32:04;;;;;;;15.55;11.63;;;;;;;12.08;56.33;101130.53;5030935;28;19928;-70
2022/01/06 10:34:36;;;;;;;21.45;15.40;;;;;;;12.32;55.79;101132.72;5030407;28;20080;-72
2022/01/06 10:37:15;;;;;;;10.32;7.75;;;;;;;12.52;55.33;101125.44;5030743;28;20065;-68
2022/01/06 10:39:44;;;;;;;12.85;9.93;;;;;;;11.96;56.35;101130.41;5025152;28;20068;-70
2022/01/06 10:42:11;;;;;;;12.85;7.88;;;;;;;12.34;55.74;101130.84;5030492;28;20053;-71
2022/01/06 10:44:49;;;;;;;34.72;23.38;;;;;;;12.20;55.62;101118.50;5038491;28;20504;-69
2022/01/06 10:47:45;;;;;;;21.00;13.75;;;;;;;11.50;57.27;101129.34;5020496;28;20045;-68
2022/01/06 10:50:22;;;;;;;51.03;28.15;;;;;;;11.52;57.28;101130.13;5028882;28;20080;-68
2022/01/06 10:52:49;;;;;;;34.05;20.75;;;;;;;11.95;55.99;101131.28;5030251;28;20049;-68
2022/01/06 10:55:18;;;;;;;27.55;19.73;;;;;;;11.90;56.25;101121.88;5030351;28;20135;-69
2022/01/06 10:57:55;;;;;;;47.58;30.85;;;;;;;11.99;55.70;101125.81;5021334;28;20050;-69
2022/01/06 11:00:27;;;;;;;31.70;18.92;;;;;;;12.13;55.36;101125.03;5029293;28;20087;-68
2022/01/06 11:03:07;;;;;;;83.38;44.08;;;;;;;11.93;55.74;101126.13;5030022;28;20037;-69
2022/01/06 11:05:41;;;;;;;144.68;71.88;;;;;;;11.91;55.46;101130.66;5026199;28;20053;-67
2022/01/06 11:08:10;;;;;;;93.85;52.78;;;;;;;11.77;56.40;101129.63;5030669;28;20054;-68
2022/01/06 11:10:40;;;;;;;38.20;23.70;;;;;;;11.50;56.54;101133.75;5029849;28;20053;-67
2022/01/06 11:13:06;;;;;;;261.88;137.00;;;;;;;11.06;57.48;101128.19;5029812;28;20571;-68
2022/01/06 11:15:33;;;;;;;224.32;135.15;;;;;;;10.78;58.09;101129.59;5027902;28;20381;-70
2022/01/06 11:18:01;;;;;;;222.93;117.47;;;;;;;10.84;58.14;101127.59;5027604;28;20056;-69
2022/01/06 11:20:28;;;;;;;16.13;11.85;;;;;;;10.56;59.22;101122.00;5041264;28;20450;-70
2022/01/06 11:22:56;;;;;;;18.42;11.63;;;;;;;10.43;59.98;101142.72;5030239;28;20400;-70
2022/01/06 11:25:36;;;;;;;23.40;13.52;;;;;;;10.42;60.17;101138.44;5036063;28;20045;-70
2022/01/06 11:28:09;;;;;;;9.65;8.75;;;;;;;10.15;60.82;101143.22;5029365;28;20458;-69
2022/01/06 11:30:47;;;;;;;10.43;7.63;;;;;;;10.01;61.29;101135.16;5029436;28;20099;-70
2022/01/06 11:33:15;;;;;;;25.08;16.83;;;;;;;9.89;61.74;101136.59;5029360;28;20045;-69
2022/01/06 11:35:51;;;;;;;22.33;14.73;;;;;;;9.88;61.81;101125.25;5023487;28;20095;-69
2022/01/06 11:38:20;;;;;;;30.40;17.75;;;;;;;9.82;61.99;101127.31;5029411;28;20053;-69
2022/01/06 11:40:49;;;;;;;16.60;10.20;;;;;;;9.90;61.86;101118.19;5029379;28;20053;-70